sensor_id;sensor_type;location;lat;lon;timestamp;temperature;humidity
11744;DHT22;5929;51.906;7.674;2022-07-10T00:00:11;15.60;94.30
11744;DHT22;5929;51.906;7.674;2022-07-10T00:02:39;15.60;94.60
11744;DHT22;5929;51.906;7.674;2022-07-10T00:05:06;15.60;94.40
11744;DHT22;5929;51.906;7.674;2022-07-10T00:07:33;15.70;94.50
11744;DHT22;5929;51.906;7.674;2022-07-10T00:10:00;15.70;94.50
11744;DHT22;5929;51.906;7.674;2022-07-10T00:12:27;15.70;94.70
11744;DHT22;5929;51.906;7.674;2022-07-10T00:14:55;15.60;95.00
11744;DHT22;5929;51.906;7.674;2022-07-10T00:17:22;15.50;95.20
11744;DHT22;5929;51.906;7.674;2022-07-10T00:19:49;15.50;95.20
11744;DHT22;5929;51.906;7.674;2022-07-10T00:22:16;15.50;95.40
11744;DHT22;5929;51.906;7.674;2022-07-10T00:24:43;15.40;95.70
11744;DHT22;5929;51.906;7.674;2022-07-10T00:27:09;15.50;96.10
11744;DHT22;5929;51.906;7.674;2022-07-10T00:29:37;15.50;96.00
11744;DHT22;5929;51.906;7.674;2022-07-10T00:32:07;15.50;96.20
11744;DHT22;5929;51.906;7.674;2022-07-10T00:34:33;15.40;96.60
11744;DHT22;5929;51.906;7.674;2022-07-10T00:37:01;15.30;96.60
11744;DHT22;5929;51.906;7.674;2022-07-10T00:39:27;15.20;96.60
11744;DHT22;5929;51.906;7.674;2022-07-10T00:41:54;15.10;97.00
11744;DHT22;5929;51.906;7.674;2022-07-10T00:44:21;15.20;97.40
11744;DHT22;5929;51.906;7.674;2022-07-10T00:46:48;15.10;97.60
11744;DHT22;5929;51.906;7.674;2022-07-10T00:49:17;15.00;97.80
11744;DHT22;5929;51.906;7.674;2022-07-10T00:51:43;15.00;98.10
11744;DHT22;5929;51.906;7.674;2022-07-10T00:54:10;15.00;98.30
11744;DHT22;5929;51.906;7.674;2022-07-10T00:56:37;15.00;98.50
11744;DHT22;5929;51.906;7.674;2022-07-10T00:59:04;15.00;98.80
11744;DHT22;5929;51.906;7.674;2022-07-10T01:01:32;15.00;98.90
11744;DHT22;5929;51.906;7.674;2022-07-10T01:03:59;15.00;98.80
11744;DHT22;5929;51.906;7.674;2022-07-10T01:06:28;15.10;98.90
11744;DHT22;5929;51.906;7.674;2022-07-10T01:08:55;15.00;98.90
11744;DHT22;5929;51.906;7.674;2022-07-10T01:11:24;15.00;99.00
11744;DHT22;5929;51.906;7.674;2022-07-10T01:13:51;15.00;99.10
11744;DHT22;5929;51.906;7.674;2022-07-10T01:16:18;15.00;99.20
11744;DHT22;5929;51.906;7.674;2022-07-10T01:18:44;15.00;99.30
11744;DHT22;5929;51.906;7.674;2022-07-10T01:21:25;15.00;99.30
11744;DHT22;5929;51.906;7.674;2022-07-10T01:23:52;15.00;99.50
11744;DHT22;5929;51.906;7.674;2022-07-10T01:26:20;14.90;99.70
11744;DHT22;5929;51.906;7.674;2022-07-10T01:28:48;14.90;99.90
11744;DHT22;5929;51.906;7.674;2022-07-10T01:31:17;14.90;99.90
11744;DHT22;5929;51.906;7.674;2022-07-10T01:33:43;15.00;99.80
11744;DHT22;5929;51.906;7.674;2022-07-10T01:36:11;14.90;99.80
11744;DHT22;5929;51.906;7.674;2022-07-10T01:38:39;14.90;99.90
11744;DHT22;5929;51.906;7.674;2022-07-10T01:41:06;14.90;99.90
11744;DHT22;5929;51.906;7.674;2022-07-10T01:43:34;14.90;99.90
11744;DHT22;5929;51.906;7.674;2022-07-10T01:46:01;14.90;99.90
11744;DHT22;5929;51.906;7.674;2022-07-10T01:48:28;14.90;99.90
11744;DHT22;5929;51.906;7.674;2022-07-10T01:50:55;14.90;99.90
11744;DHT22;5929;51.906;7.674;2022-07-10T01:53:23;14.90;99.90
11744;DHT22;5929;51.906;7.674;2022-07-10T01:55:51;14.90;99.90
11744;DHT22;5929;51.906;7.674;2022-07-10T01:58:18;14.90;99.90
11744;DHT22;5929;51.906;7.674;2022-07-10T02:00:45;14.80;99.90
11744;DHT22;5929;51.906;7.674;2022-07-10T02:03:11;14.80;99.90
11744;DHT22;5929;51.906;7.674;2022-07-10T02:05:56;14.90;99.90
11744;DHT22;5929;51.906;7.674;2022-07-10T02:08:23;14.90;99.90
11744;DHT22;5929;51.906;7.674;2022-07-10T02:10:51;14.90;99.90
11744;DHT22;5929;51.906;7.674;2022-07-10T02:13:18;14.80;99.90
11744;DHT22;5929;51.906;7.674;2022-07-10T02:15:46;14.80;99.90
11744;DHT22;5929;51.906;7.674;2022-07-10T02:18:12;14.80;99.90
11744;DHT22;5929;51.906;7.674;2022-07-10T02:20:39;14.80;99.90
11744;DHT22;5929;51.906;7.674;2022-07-10T02:23:06;14.80;99.90
11744;DHT22;5929;51.906;7.674;2022-07-10T02:25:33;14.90;99.90
11744;DHT22;5929;51.906;7.674;2022-07-10T02:28:02;14.80;99.90
11744;DHT22;5929;51.906;7.674;2022-07-10T02:30:31;14.80;99.90
11744;DHT22;5929;51.906;7.674;2022-07-10T02:32:58;14.80;99.90
11744;DHT22;5929;51.906;7.674;2022-07-10T02:35:27;14.80;99.90
11744;DHT22;5929;51.906;7.674;2022-07-10T02:37:54;14.70;99.90
11744;DHT22;5929;51.906;7.674;2022-07-10T02:40:21;14.80;99.90
11744;DHT22;5929;51.906;7.674;2022-07-10T02:42:48;14.70;99.90
11744;DHT22;5929;51.906;7.674;2022-07-10T02:45:16;14.70;99.90
11744;DHT22;5929;51.906;7.674;2022-07-10T02:47:43;14.70;99.90
11744;DHT22;5929;51.906;7.674;2022-07-10T02:50:10;14.70;99.90
11744;DHT22;5929;51.906;7.674;2022-07-10T02:52:37;14.60;99.90
11744;DHT22;5929;51.906;7.674;2022-07-10T02:55:05;14.60;99.90
11744;DHT22;5929;51.906;7.674;2022-07-10T02:57:31;14.60;99.90
11744;DHT22;5929;51.906;7.674;2022-07-10T02:59:59;14.50;99.90
11744;DHT22;5929;51.906;7.674;2022-07-10T03:02:27;14.50;99.90
11744;DHT22;5929;51.906;7.674;2022-07-10T03:04:54;14.50;99.90
11744;DHT22;5929;51.906;7.674;2022-07-10T03:07:21;14.60;99.90
11744;DHT22;5929;51.906;7.674;2022-07-10T03:09:48;14.60;99.90
11744;DHT22;5929;51.906;7.674;2022-07-10T03:12:17;14.50;99.90
11744;DHT22;5929;51.906;7.674;2022-07-10T03:14:43;14.50;99.90
11744;DHT22;5929;51.906;7.674;2022-07-10T03:17:10;14.50;99.90
11744;DHT22;5929;51.906;7.674;2022-07-10T03:19:38;14.50;99.90
11744;DHT22;5929;51.906;7.674;2022-07-10T03:22:05;14.50;99.90
11744;DHT22;5929;51.906;7.674;2022-07-10T03:24:32;14.50;99.90
11744;DHT22;5929;51.906;7.674;2022-07-10T03:26:59;14.50;99.90
11744;DHT22;5929;51.906;7.674;2022-07-10T03:29:26;14.50;99.90
11744;DHT22;5929;51.906;7.674;2022-07-10T03:31:53;14.50;99.90
11744;DHT22;5929;51.906;7.674;2022-07-10T03:34:22;14.40;99.90
11744;DHT22;5929;51.906;7.674;2022-07-10T03:36:50;14.40;99.90
11744;DHT22;5929;51.906;7.674;2022-07-10T03:39:17;14.40;99.90
11744;DHT22;5929;51.906;7.674;2022-07-10T03:41:44;14.40;99.90
11744;DHT22;5929;51.906;7.674;2022-07-10T03:44:10;14.40;99.90
11744;DHT22;5929;51.906;7.674;2022-07-10T03:46:37;14.40;99.90
11744;DHT22;5929;51.906;7.674;2022-07-10T03:49:04;14.40;99.90
11744;DHT22;5929;51.906;7.674;2022-07-10T03:51:31;14.30;99.90
11744;DHT22;5929;51.906;7.674;2022-07-10T03:53:59;14.30;99.90
11744;DHT22;5929;51.906;7.674;2022-07-10T03:56:26;14.30;99.90
11744;DHT22;5929;51.906;7.674;2022-07-10T03:59:11;14.20;99.90
11744;DHT22;5929;51.906;7.674;2022-07-10T04:01:37;14.30;99.90
11744;DHT22;5929;51.906;7.674;2022-07-10T04:04:04;14.30;99.90
11744;DHT22;5929;51.906;7.674;2022-07-10T04:06:31;14.20;99.90
11744;DHT22;5929;51.906;7.674;2022-07-10T04:08:59;14.20;99.90
11744;DHT22;5929;51.906;7.674;2022-07-10T04:11:26;14.20;99.90
11744;DHT22;5929;51.906;7.674;2022-07-10T04:13:53;14.20;99.90
11744;DHT22;5929;51.906;7.674;2022-07-10T04:16:20;14.20;99.90
11744;DHT22;5929;51.906;7.674;2022-07-10T04:18:47;14.20;99.90
11744;DHT22;5929;51.906;7.674;2022-07-10T04:21:14;14.20;99.90
11744;DHT22;5929;51.906;7.674;2022-07-10T04:23:41;14.20;99.90
11744;DHT22;5929;51.906;7.674;2022-07-10T04:26:09;14.10;99.90
11744;DHT22;5929;51.906;7.674;2022-07-10T04:28:36;14.10;99.90
11744;DHT22;5929;51.906;7.674;2022-07-10T04:31:03;14.20;99.90
11744;DHT22;5929;51.906;7.674;2022-07-10T04:33:29;14.10;99.90
11744;DHT22;5929;51.906;7.674;2022-07-10T04:35:56;14.10;99.90
11744;DHT22;5929;51.906;7.674;2022-07-10T04:38:23;14.20;99.90
11744;DHT22;5929;51.906;7.674;2022-07-10T04:40:50;14.20;99.90
11744;DHT22;5929;51.906;7.674;2022-07-10T04:43:19;14.10;99.90
11744;DHT22;5929;51.906;7.674;2022-07-10T04:45:45;14.20;99.90
11744;DHT22;5929;51.906;7.674;2022-07-10T04:48:12;14.20;99.90
11744;DHT22;5929;51.906;7.674;2022-07-10T04:50:39;14.30;99.90
11744;DHT22;5929;51.906;7.674;2022-07-10T04:53:06;14.30;99.90
11744;DHT22;5929;51.906;7.674;2022-07-10T04:55:33;14.30;99.90
11744;DHT22;5929;51.906;7.674;2022-07-10T04:58:00;14.30;99.90
11744;DHT22;5929;51.906;7.674;2022-07-10T05:00:28;14.40;99.90
11744;DHT22;5929;51.906;7.674;2022-07-10T05:02:55;14.40;99.90
11744;DHT22;5929;51.906;7.674;2022-07-10T05:05:22;14.40;99.90
11744;DHT22;5929;51.906;7.674;2022-07-10T05:07:49;14.40;99.90
11744;DHT22;5929;51.906;7.674;2022-07-10T05:10:15;14.50;99.90
11744;DHT22;5929;51.906;7.674;2022-07-10T05:12:42;14.40;99.90
11744;DHT22;5929;51.906;7.674;2022-07-10T05:15:10;14.50;99.90
11744;DHT22;5929;51.906;7.674;2022-07-10T05:17:38;14.40;99.90
11744;DHT22;5929;51.906;7.674;2022-07-10T05:20:06;14.40;99.90
11744;DHT22;5929;51.906;7.674;2022-07-10T05:22:32;14.40;99.90
11744;DHT22;5929;51.906;7.674;2022-07-10T05:24:59;14.50;99.90
11744;DHT22;5929;51.906;7.674;2022-07-10T05:27:26;14.50;99.90
11744;DHT22;5929;51.906;7.674;2022-07-10T05:29:53;14.60;99.90
11744;DHT22;5929;51.906;7.674;2022-07-10T05:32:20;14.60;99.90
11744;DHT22;5929;51.906;7.674;2022-07-10T05:34:48;14.60;99.90
11744;DHT22;5929;51.906;7.674;2022-07-10T05:37:15;14.70;99.90
11744;DHT22;5929;51.906;7.674;2022-07-10T05:39:42;14.70;99.90
11744;DHT22;5929;51.906;7.674;2022-07-10T05:42:08;14.70;99.90
11744;DHT22;5929;51.906;7.674;2022-07-10T05:44:36;14.50;99.90
11744;DHT22;5929;51.906;7.674;2022-07-10T05:47:03;14.50;99.90
11744;DHT22;5929;51.906;7.674;2022-07-10T05:49:30;14.40;99.90
11744;DHT22;5929;51.906;7.674;2022-07-10T05:51:59;14.40;99.90
11744;DHT22;5929;51.906;7.674;2022-07-10T05:54:26;14.40;99.90
11744;DHT22;5929;51.906;7.674;2022-07-10T05:56:53;14.40;99.90
11744;DHT22;5929;51.906;7.674;2022-07-10T05:59:19;14.40;99.90
11744;DHT22;5929;51.906;7.674;2022-07-10T06:01:46;14.40;99.90
11744;DHT22;5929;51.906;7.674;2022-07-10T06:04:13;14.40;99.90
11744;DHT22;5929;51.906;7.674;2022-07-10T06:06:40;14.60;99.90
11744;DHT22;5929;51.906;7.674;2022-07-10T06:09:08;14.60;99.90
11744;DHT22;5929;51.906;7.674;2022-07-10T06:11:35;14.70;99.90
11744;DHT22;5929;51.906;7.674;2022-07-10T06:14:02;14.80;99.90
11744;DHT22;5929;51.906;7.674;2022-07-10T06:16:29;14.90;99.90
11744;DHT22;5929;51.906;7.674;2022-07-10T06:18:56;14.90;99.90
11744;DHT22;5929;51.906;7.674;2022-07-10T06:21:22;15.00;99.90
11744;DHT22;5929;51.906;7.674;2022-07-10T06:23:49;15.10;99.90
11744;DHT22;5929;51.906;7.674;2022-07-10T06:26:18;15.10;99.90
11744;DHT22;5929;51.906;7.674;2022-07-10T06:28:45;15.20;99.90
11744;DHT22;5929;51.906;7.674;2022-07-10T06:31:12;15.30;99.90
11744;DHT22;5929;51.906;7.674;2022-07-10T06:33:38;15.40;99.90
11744;DHT22;5929;51.906;7.674;2022-07-10T06:36:06;15.50;99.90
11744;DHT22;5929;51.906;7.674;2022-07-10T06:38:33;15.60;99.90
11744;DHT22;5929;51.906;7.674;2022-07-10T06:41:00;15.70;99.90
11744;DHT22;5929;51.906;7.674;2022-07-10T06:43:28;15.90;99.80
11744;DHT22;5929;51.906;7.674;2022-07-10T06:45:56;16.00;99.90
11744;DHT22;5929;51.906;7.674;2022-07-10T06:48:24;16.10;99.20
11744;DHT22;5929;51.906;7.674;2022-07-10T06:50:52;16.20;98.20
11744;DHT22;5929;51.906;7.674;2022-07-10T06:53:19;16.20;98.10
11744;DHT22;5929;51.906;7.674;2022-07-10T06:55:49;16.20;98.20
11744;DHT22;5929;51.906;7.674;2022-07-10T06:58:16;16.20;98.10
11744;DHT22;5929;51.906;7.674;2022-07-10T07:00:44;16.30;98.20
11744;DHT22;5929;51.906;7.674;2022-07-10T07:03:11;16.30;98.40
11744;DHT22;5929;51.906;7.674;2022-07-10T07:05:38;16.50;98.20
11744;DHT22;5929;51.906;7.674;2022-07-10T07:08:05;16.40;97.80
11744;DHT22;5929;51.906;7.674;2022-07-10T07:10:32;16.30;97.70
11744;DHT22;5929;51.906;7.674;2022-07-10T07:12:59;16.30;98.30
11744;DHT22;5929;51.906;7.674;2022-07-10T07:15:28;16.30;97.90
11744;DHT22;5929;51.906;7.674;2022-07-10T07:17:56;16.20;97.90
11744;DHT22;5929;51.906;7.674;2022-07-10T07:20:33;16.20;97.90
11744;DHT22;5929;51.906;7.674;2022-07-10T07:23:18;16.10;98.00
11744;DHT22;5929;51.906;7.674;2022-07-10T07:25:47;16.10;98.50
11744;DHT22;5929;51.906;7.674;2022-07-10T07:28:14;16.10;98.40
11744;DHT22;5929;51.906;7.674;2022-07-10T07:30:45;16.10;98.50
11744;DHT22;5929;51.906;7.674;2022-07-10T07:33:13;15.90;98.80
11744;DHT22;5929;51.906;7.674;2022-07-10T07:35:43;15.80;99.30
11744;DHT22;5929;51.906;7.674;2022-07-10T07:38:10;15.80;99.60
11744;DHT22;5929;51.906;7.674;2022-07-10T07:40:37;15.80;99.90
11744;DHT22;5929;51.906;7.674;2022-07-10T07:43:04;15.50;99.90
11744;DHT22;5929;51.906;7.674;2022-07-10T07:45:31;15.20;99.90
11744;DHT22;5929;51.906;7.674;2022-07-10T07:47:59;15.00;99.90
11744;DHT22;5929;51.906;7.674;2022-07-10T07:50:29;14.80;99.90
11744;DHT22;5929;51.906;7.674;2022-07-10T07:52:59;14.90;99.90
11744;DHT22;5929;51.906;7.674;2022-07-10T07:55:27;15.20;99.90
11744;DHT22;5929;51.906;7.674;2022-07-10T07:57:55;15.30;99.90
11744;DHT22;5929;51.906;7.674;2022-07-10T08:00:23;15.50;99.90
11744;DHT22;5929;51.906;7.674;2022-07-10T08:02:51;15.60;99.90
11744;DHT22;5929;51.906;7.674;2022-07-10T08:05:19;15.80;99.90
11744;DHT22;5929;51.906;7.674;2022-07-10T08:07:50;15.70;99.90
11744;DHT22;5929;51.906;7.674;2022-07-10T08:10:19;15.80;99.90
11744;DHT22;5929;51.906;7.674;2022-07-10T08:12:46;16.00;99.90
11744;DHT22;5929;51.906;7.674;2022-07-10T08:15:17;16.10;99.90
11744;DHT22;5929;51.906;7.674;2022-07-10T08:17:47;16.10;99.90
11744;DHT22;5929;51.906;7.674;2022-07-10T08:20:14;16.10;99.90
11744;DHT22;5929;51.906;7.674;2022-07-10T08:22:41;16.10;99.90
11744;DHT22;5929;51.906;7.674;2022-07-10T08:25:10;16.00;99.90
11744;DHT22;5929;51.906;7.674;2022-07-10T08:27:37;16.00;99.90
11744;DHT22;5929;51.906;7.674;2022-07-10T08:30:06;15.90;99.90
11744;DHT22;5929;51.906;7.674;2022-07-10T08:32:34;15.90;99.90
11744;DHT22;5929;51.906;7.674;2022-07-10T08:35:01;15.80;99.90
11744;DHT22;5929;51.906;7.674;2022-07-10T08:37:37;15.70;99.90
11744;DHT22;5929;51.906;7.674;2022-07-10T08:40:05;15.70;99.90
11744;DHT22;5929;51.906;7.674;2022-07-10T08:42:34;15.80;99.90
11744;DHT22;5929;51.906;7.674;2022-07-10T08:45:00;16.00;99.90
11744;DHT22;5929;51.906;7.674;2022-07-10T08:47:28;16.00;99.90
11744;DHT22;5929;51.906;7.674;2022-07-10T08:49:57;16.00;99.90
11744;DHT22;5929;51.906;7.674;2022-07-10T08:52:26;16.00;99.90
11744;DHT22;5929;51.906;7.674;2022-07-10T08:54:54;15.90;99.90
11744;DHT22;5929;51.906;7.674;2022-07-10T08:57:23;15.90;99.90
11744;DHT22;5929;51.906;7.674;2022-07-10T08:59:51;15.90;99.90
11744;DHT22;5929;51.906;7.674;2022-07-10T09:02:19;15.80;99.90
11744;DHT22;5929;51.906;7.674;2022-07-10T09:04:46;15.70;99.90
11744;DHT22;5929;51.906;7.674;2022-07-10T09:07:13;15.70;99.90
11744;DHT22;5929;51.906;7.674;2022-07-10T09:09:55;15.60;99.90
11744;DHT22;5929;51.906;7.674;2022-07-10T09:12:24;15.60;99.90
11744;DHT22;5929;51.906;7.674;2022-07-10T09:14:52;15.70;99.90
11744;DHT22;5929;51.906;7.674;2022-07-10T09:17:19;15.80;99.90
11744;DHT22;5929;51.906;7.674;2022-07-10T09:19:46;15.90;99.90
11744;DHT22;5929;51.906;7.674;2022-07-10T09:22:13;16.00;99.90
11744;DHT22;5929;51.906;7.674;2022-07-10T09:24:43;16.10;99.90
11744;DHT22;5929;51.906;7.674;2022-07-10T09:27:11;16.20;99.90
11744;DHT22;5929;51.906;7.674;2022-07-10T09:29:47;16.40;99.90
11744;DHT22;5929;51.906;7.674;2022-07-10T09:32:17;16.40;99.90
11744;DHT22;5929;51.906;7.674;2022-07-10T09:34:45;16.60;99.90
11744;DHT22;5929;51.906;7.674;2022-07-10T09:37:20;16.60;99.90
11744;DHT22;5929;51.906;7.674;2022-07-10T09:39:56;16.60;99.90
11744;DHT22;5929;51.906;7.674;2022-07-10T09:42:30;16.70;99.90
11744;DHT22;5929;51.906;7.674;2022-07-10T09:45:14;16.80;99.90
11744;DHT22;5929;51.906;7.674;2022-07-10T09:47:45;16.90;99.90
11744;DHT22;5929;51.906;7.674;2022-07-10T09:50:23;16.70;99.90
11744;DHT22;5929;51.906;7.674;2022-07-10T09:52:51;16.40;99.90
11744;DHT22;5929;51.906;7.674;2022-07-10T09:55:20;16.40;99.90
11744;DHT22;5929;51.906;7.674;2022-07-10T09:57:53;16.40;99.90
11744;DHT22;5929;51.906;7.674;2022-07-10T10:00:25;16.40;99.90
11744;DHT22;5929;51.906;7.674;2022-07-10T10:02:58;16.40;99.90
11744;DHT22;5929;51.906;7.674;2022-07-10T10:05:36;16.40;99.90
11744;DHT22;5929;51.906;7.674;2022-07-10T10:08:09;16.20;99.90
11744;DHT22;5929;51.906;7.674;2022-07-10T10:10:40;15.90;99.90
11744;DHT22;5929;51.906;7.674;2022-07-10T10:13:11;16.00;99.90
11744;DHT22;5929;51.906;7.674;2022-07-10T10:15:38;16.10;99.90
11744;DHT22;5929;51.906;7.674;2022-07-10T10:18:06;16.20;99.90
11744;DHT22;5929;51.906;7.674;2022-07-10T10:20:34;16.30;99.90
11744;DHT22;5929;51.906;7.674;2022-07-10T10:23:09;16.30;99.90
11744;DHT22;5929;51.906;7.674;2022-07-10T10:25:37;16.30;99.90
11744;DHT22;5929;51.906;7.674;2022-07-10T10:28:06;16.20;99.90
11744;DHT22;5929;51.906;7.674;2022-07-10T10:30:38;16.30;99.90
11744;DHT22;5929;51.906;7.674;2022-07-10T10:36:12;16.30;99.90
11744;DHT22;5929;51.906;7.674;2022-07-10T10:39:08;16.40;99.90
11744;DHT22;5929;51.906;7.674;2022-07-10T10:41:37;16.40;99.90
11744;DHT22;5929;51.906;7.674;2022-07-10T10:44:27;16.40;99.90
11744;DHT22;5929;51.906;7.674;2022-07-10T10:47:07;16.40;99.90
11744;DHT22;5929;51.906;7.674;2022-07-10T10:49:52;16.30;99.90
11744;DHT22;5929;51.906;7.674;2022-07-10T10:52:20;16.30;99.90
11744;DHT22;5929;51.906;7.674;2022-07-10T10:55:08;16.30;99.90
11744;DHT22;5929;51.906;7.674;2022-07-10T10:57:40;16.30;99.90
11744;DHT22;5929;51.906;7.674;2022-07-10T11:00:15;16.30;99.90
11744;DHT22;5929;51.906;7.674;2022-07-10T11:03:17;16.20;99.90
11744;DHT22;5929;51.906;7.674;2022-07-10T11:05:48;16.10;99.90
11744;DHT22;5929;51.906;7.674;2022-07-10T11:08:36;16.00;99.90
11744;DHT22;5929;51.906;7.674;2022-07-10T11:14:03;15.70;99.90
11744;DHT22;5929;51.906;7.674;2022-07-10T11:16:31;15.60;99.90
11744;DHT22;5929;51.906;7.674;2022-07-10T11:19:00;15.60;99.90
11744;DHT22;5929;51.906;7.674;2022-07-10T11:21:28;15.60;99.90
11744;DHT22;5929;51.906;7.674;2022-07-10T11:24:05;15.60;99.90
11744;DHT22;5929;51.906;7.674;2022-07-10T11:26:35;15.50;99.90
11744;DHT22;5929;51.906;7.674;2022-07-10T11:29:04;15.40;99.90
11744;DHT22;5929;51.906;7.674;2022-07-10T11:31:32;15.50;99.90
11744;DHT22;5929;51.906;7.674;2022-07-10T11:34:03;15.50;99.90
11744;DHT22;5929;51.906;7.674;2022-07-10T11:36:30;15.70;99.90
11744;DHT22;5929;51.906;7.674;2022-07-10T11:38:59;16.00;99.90
11744;DHT22;5929;51.906;7.674;2022-07-10T11:41:27;16.20;99.90
11744;DHT22;5929;51.906;7.674;2022-07-10T11:43:56;16.30;99.90
11744;DHT22;5929;51.906;7.674;2022-07-10T11:46:24;16.50;99.90
11744;DHT22;5929;51.906;7.674;2022-07-10T11:48:52;16.60;99.90
11744;DHT22;5929;51.906;7.674;2022-07-10T11:51:24;16.60;99.90
11744;DHT22;5929;51.906;7.674;2022-07-10T11:53:59;16.50;99.90
11744;DHT22;5929;51.906;7.674;2022-07-10T11:56:29;16.50;99.90
11744;DHT22;5929;51.906;7.674;2022-07-10T11:58:59;16.30;99.90
11744;DHT22;5929;51.906;7.674;2022-07-10T12:01:26;16.10;99.90
11744;DHT22;5929;51.906;7.674;2022-07-10T12:04:01;15.90;99.90
11744;DHT22;5929;51.906;7.674;2022-07-10T12:06:29;15.80;99.90
11744;DHT22;5929;51.906;7.674;2022-07-10T12:09:01;15.80;99.90
11744;DHT22;5929;51.906;7.674;2022-07-10T12:11:30;15.70;99.90
11744;DHT22;5929;51.906;7.674;2022-07-10T12:14:09;15.80;99.90
11744;DHT22;5929;51.906;7.674;2022-07-10T12:16:37;15.70;99.90
11744;DHT22;5929;51.906;7.674;2022-07-10T12:19:06;15.70;99.90
11744;DHT22;5929;51.906;7.674;2022-07-10T12:21:33;15.90;99.90
11744;DHT22;5929;51.906;7.674;2022-07-10T12:24:01;16.30;99.90
11744;DHT22;5929;51.906;7.674;2022-07-10T12:26:35;16.30;99.90
11744;DHT22;5929;51.906;7.674;2022-07-10T12:29:03;16.40;99.90
11744;DHT22;5929;51.906;7.674;2022-07-10T12:31:31;16.40;99.90
11744;DHT22;5929;51.906;7.674;2022-07-10T12:33:59;16.50;99.90
11744;DHT22;5929;51.906;7.674;2022-07-10T12:36:43;16.30;99.90
11744;DHT22;5929;51.906;7.674;2022-07-10T12:39:11;16.20;99.90
11744;DHT22;5929;51.906;7.674;2022-07-10T12:41:57;16.30;99.90
11744;DHT22;5929;51.906;7.674;2022-07-10T12:44:35;16.40;99.90
11744;DHT22;5929;51.906;7.674;2022-07-10T12:47:03;16.60;99.90
11744;DHT22;5929;51.906;7.674;2022-07-10T12:49:50;16.80;99.90
11744;DHT22;5929;51.906;7.674;2022-07-10T12:52:25;17.10;99.90
11744;DHT22;5929;51.906;7.674;2022-07-10T12:55:09;17.30;99.90
11744;DHT22;5929;51.906;7.674;2022-07-10T12:57:51;17.70;99.90
11744;DHT22;5929;51.906;7.674;2022-07-10T13:00:20;17.40;99.90
11744;DHT22;5929;51.906;7.674;2022-07-10T13:02:47;17.10;99.90
11744;DHT22;5929;51.906;7.674;2022-07-10T13:05:26;16.80;99.90
11744;DHT22;5929;51.906;7.674;2022-07-10T13:07:53;16.70;99.90
11744;DHT22;5929;51.906;7.674;2022-07-10T13:10:33;16.60;99.90
11744;DHT22;5929;51.906;7.674;2022-07-10T13:13:03;16.60;99.90
11744;DHT22;5929;51.906;7.674;2022-07-10T13:15:30;16.70;99.90
11744;DHT22;5929;51.906;7.674;2022-07-10T13:17:57;16.90;99.90
11744;DHT22;5929;51.906;7.674;2022-07-10T13:20:24;17.10;99.90
11744;DHT22;5929;51.906;7.674;2022-07-10T13:22:51;17.20;99.90
11744;DHT22;5929;51.906;7.674;2022-07-10T13:25:17;17.20;99.90
11744;DHT22;5929;51.906;7.674;2022-07-10T13:27:44;17.00;99.90
11744;DHT22;5929;51.906;7.674;2022-07-10T13:30:13;16.80;99.90
11744;DHT22;5929;51.906;7.674;2022-07-10T13:32:40;16.70;99.90
11744;DHT22;5929;51.906;7.674;2022-07-10T13:35:08;16.70;99.90
11744;DHT22;5929;51.906;7.674;2022-07-10T13:37:35;16.70;99.90
11744;DHT22;5929;51.906;7.674;2022-07-10T13:40:02;16.70;99.90
11744;DHT22;5929;51.906;7.674;2022-07-10T13:42:31;16.90;99.90
11744;DHT22;5929;51.906;7.674;2022-07-10T13:44:58;17.10;99.90
11744;DHT22;5929;51.906;7.674;2022-07-10T13:47:26;17.50;99.90
11744;DHT22;5929;51.906;7.674;2022-07-10T13:49:53;17.90;99.90
11744;DHT22;5929;51.906;7.674;2022-07-10T13:52:20;18.20;99.90
11744;DHT22;5929;51.906;7.674;2022-07-10T13:54:47;18.30;99.90
11744;DHT22;5929;51.906;7.674;2022-07-10T13:57:14;18.20;99.90
11744;DHT22;5929;51.906;7.674;2022-07-10T13:59:40;18.20;99.90
11744;DHT22;5929;51.906;7.674;2022-07-10T14:02:07;18.00;99.90
11744;DHT22;5929;51.906;7.674;2022-07-10T14:04:36;17.90;99.90
11744;DHT22;5929;51.906;7.674;2022-07-10T14:07:03;17.90;99.90
11744;DHT22;5929;51.906;7.674;2022-07-10T14:09:30;18.00;99.90
11744;DHT22;5929;51.906;7.674;2022-07-10T14:11:57;18.20;99.90
11744;DHT22;5929;51.906;7.674;2022-07-10T14:14:23;18.40;99.90
11744;DHT22;5929;51.906;7.674;2022-07-10T14:16:50;18.60;99.90
11744;DHT22;5929;51.906;7.674;2022-07-10T14:19:17;18.60;99.90
11744;DHT22;5929;51.906;7.674;2022-07-10T14:21:45;18.70;99.90
11744;DHT22;5929;51.906;7.674;2022-07-10T14:24:12;19.00;99.90
11744;DHT22;5929;51.906;7.674;2022-07-10T14:26:40;19.20;99.90
11744;DHT22;5929;51.906;7.674;2022-07-10T14:29:06;19.20;99.90
11744;DHT22;5929;51.906;7.674;2022-07-10T14:31:33;19.40;99.90
11744;DHT22;5929;51.906;7.674;2022-07-10T14:34:01;19.40;99.90
11744;DHT22;5929;51.906;7.674;2022-07-10T14:36:28;19.10;99.90
11744;DHT22;5929;51.906;7.674;2022-07-10T14:38:56;18.90;99.90
11744;DHT22;5929;51.906;7.674;2022-07-10T14:41:24;18.60;99.90
11744;DHT22;5929;51.906;7.674;2022-07-10T14:43:53;18.40;99.90
11744;DHT22;5929;51.906;7.674;2022-07-10T14:46:20;18.20;99.90
11744;DHT22;5929;51.906;7.674;2022-07-10T14:48:47;18.20;99.90
11744;DHT22;5929;51.906;7.674;2022-07-10T14:51:13;18.00;99.90
11744;DHT22;5929;51.906;7.674;2022-07-10T14:53:40;17.80;99.90
11744;DHT22;5929;51.906;7.674;2022-07-10T14:56:10;17.60;99.90
11744;DHT22;5929;51.906;7.674;2022-07-10T14:58:37;17.40;99.90
11744;DHT22;5929;51.906;7.674;2022-07-10T15:01:04;17.30;99.90
11744;DHT22;5929;51.906;7.674;2022-07-10T15:03:31;17.20;99.90
11744;DHT22;5929;51.906;7.674;2022-07-10T15:05:58;17.20;99.90
11744;DHT22;5929;51.906;7.674;2022-07-10T15:08:25;17.10;99.90
11744;DHT22;5929;51.906;7.674;2022-07-10T15:10:52;17.10;99.90
11744;DHT22;5929;51.906;7.674;2022-07-10T15:13:21;17.10;99.90
11744;DHT22;5929;51.906;7.674;2022-07-10T15:15:48;17.00;99.90
11744;DHT22;5929;51.906;7.674;2022-07-10T15:18:16;16.90;99.90
11744;DHT22;5929;51.906;7.674;2022-07-10T15:20:44;16.80;99.90
11744;DHT22;5929;51.906;7.674;2022-07-10T15:23:11;16.70;99.90
11744;DHT22;5929;51.906;7.674;2022-07-10T15:25:38;16.70;99.90
11744;DHT22;5929;51.906;7.674;2022-07-10T15:28:05;16.80;99.90
11744;DHT22;5929;51.906;7.674;2022-07-10T15:30:34;16.90;99.90
11744;DHT22;5929;51.906;7.674;2022-07-10T15:33:02;17.10;99.90
11744;DHT22;5929;51.906;7.674;2022-07-10T15:35:29;17.20;99.90
11744;DHT22;5929;51.906;7.674;2022-07-10T15:37:56;17.40;99.90
11744;DHT22;5929;51.906;7.674;2022-07-10T15:40:24;17.50;99.90
11744;DHT22;5929;51.906;7.674;2022-07-10T15:42:51;17.60;99.90
11744;DHT22;5929;51.906;7.674;2022-07-10T15:45:20;17.70;99.90
11744;DHT22;5929;51.906;7.674;2022-07-10T15:47:48;17.70;99.90
11744;DHT22;5929;51.906;7.674;2022-07-10T15:50:15;17.60;99.90
11744;DHT22;5929;51.906;7.674;2022-07-10T15:52:42;17.60;99.90
11744;DHT22;5929;51.906;7.674;2022-07-10T15:55:11;17.50;99.90
11744;DHT22;5929;51.906;7.674;2022-07-10T15:57:38;17.30;99.90
11744;DHT22;5929;51.906;7.674;2022-07-10T16:00:06;17.10;99.90